• Join FlightAware (Why Join?)
  • Login
  • US Flag 
07:48AM EDT


 

Airport Tracker/Info


-or-


 

Live Flight TrackerFlight Track Log ✈ N61TF ✈ 16-Jul-2013 ✈ KIPL - KMRY

Flight Track Log - Related Links

Times and Time Zones

All times are in EDT time to prevent confusion due to time zone crossing. See the N61TF flight status page for this flight to view local times or setup timezone preferences in your user account.

Time Position Orientation Groundspeed Altitude Reporting Facility
EDT Latitude Longitude Course Direction KTS MPH feet Rate Location/Type
01:02PM 32.8617 -115.5869 76° East 198 228 1,000  Level Los Angeles Center
01:03PM 32.8733 -115.5297 76° East 251 289 3,000 2,220 Climbing Los Angeles Center
01:04PM 32.8111 -115.5208 173° South 249 287 5,700 2,760 Climbing Los Angeles Center
01:05PM 32.7753 -115.5986 241° Southwest 276 318 8,800 3,120 Climbing Los Angeles Center
01:06PM 32.7603 -115.7203 262° West 309 356 12,200 2,880 Climbing Los Angeles Center
01:07PM 32.7464 -115.8372 262° West 349 402 14,800 2,460 Climbing Los Angeles Center
01:08PM 32.7436 -115.9614 269° West 376 433 17,300 2,460 Climbing Los Angeles Center
01:09PM 32.8075 -116.0703 305° West 402 463 19,900 2,160 Climbing Los Angeles Center
01:10PM 32.8858 -116.1700 313° West 414 476 21,800 1,800 Climbing Los Angeles Center
01:11PM 32.9747 -116.2814 314° West 433 498 23,700 1,740 Climbing Los Angeles Center
01:12PM 33.0686 -116.4036 313° West 455 524 25,400 1,500 Climbing Los Angeles Center
01:13PM 33.1539 -116.5156 312° West 463 533 26,800 1,080 Climbing Los Angeles Center
01:14PM 33.2428 -116.6322 312° West 472 543 27,700 960 Climbing Los Angeles Center
01:15PM 33.3533 -116.7769 312° West 490 564 28,900 1,020 Climbing Los Angeles Center
01:16PM 33.4472 -116.8986 313° West 498 573 29,900 960 Climbing Los Angeles Center
01:17PM 33.5400 -117.0219 312° West 499 574 30,900 900 Climbing Los Angeles Center
01:18PM 33.6267 -117.1367 312° West 503 579 31,800 960 Climbing Los Angeles Center
01:20PM 33.7397 -117.2869 312° West 506 582 32,900 960 Climbing Los Angeles Center
01:21PM 33.8342 -117.4142 312° West 511 588 33,800 900 Climbing Los Angeles Center
01:22PM 33.9289 -117.5408 312° West 512 589 34,800 960 Climbing Los Angeles Center
01:23PM 34.0206 -117.6689 311° West 509 586 35,900 1,020 Climbing Los Angeles Center
01:24PM 34.1111 -117.7964 311° West 506 582 37,000 960 Climbing Los Angeles Center
01:25PM 34.2183 -117.9492 310° West 502 578 37,900 480 Climbing Los Angeles Center
01:26PM 34.3061 -118.0744 310° West 496 571 38,000  Climbing Los Angeles Center
01:27PM 34.3928 -118.1997 310° West 491 565 38,000  Level Los Angeles Center
01:28PM 34.4822 -118.3267 311° West 497 572 38,000  Level Los Angeles Center
01:29PM 34.5697 -118.4544 310° West 496 571 38,000  Level Los Angeles Center
01:30PM 34.6761 -118.6081 310° West 496 571 38,000 -60 Level Los Angeles Center
01:31PM 34.7656 -118.7361 310° West 499 574 37,900 -360 Descending Los Angeles Center
01:32PM 34.8561 -118.8683 310° West 511 588 37,300 -720 Descending Los Angeles Center
01:33PM 34.9394 -118.9942 309° West 502 578 36,500 -1,020 Descending Los Angeles Center
01:34PM 35.0500 -119.1444 312° West 496 571 35,300 -1,080 Descending Los Angeles Center
01:35PM 35.1347 -119.2758 308° West 494 568 34,300 -960 Descending Los Angeles Center
01:36PM 35.2239 -119.4058 310° West 497 572 33,300 -960 Descending Los Angeles Center
01:37PM 35.3136 -119.5378 310° West 503 579 32,300 -1,020 Descending Los Angeles Center
01:38PM 35.4025 -119.6689 310° West 503 579 31,300 -1,080 Descending Los Angeles Center
01:39PM 35.5072 -119.8244 310° West 499 574 30,100 -660 Descending Los Angeles Center
01:40PM 35.5917 -119.9514 309° West 488 562 30,000 -60 Descending Los Angeles Center
01:41PM 35.6767 -120.0800 309° West 495 570 30,000  Level Oakland Center
01:42PM 35.7631 -120.2103 309° West 499 574 30,000 -420 Level Oakland Center
01:43PM 35.8494 -120.3425 309° West 501 577 29,200 -1,080 Descending Oakland Center
01:44PM 35.9381 -120.4739 310° West 504 580 27,900 -1,620 Descending Oakland Center
01:45PM 36.0283 -120.6092 310° West 493 567 26,000 -1,860 Descending Oakland Center
01:46PM 36.1036 -120.7267 308° West 469 540 24,200 -2,040 Descending Oakland Center
01:47PM 36.1822 -120.8489 309° West 459 528 21,800 -2,640 Descending Oakland Center
01:48PM 36.2733 -120.9889 309° West 437 503 18,900 -2,580 Descending Oakland Center
01:49PM 36.3458 -121.1033 308° West 424 488 16,600 -2,340 Descending Oakland Center
01:50PM 36.3864 -121.2261 292° West 400 460 14,200 -2,400 Descending Oakland Center
01:51PM 36.3978 -121.3533 276° West 379 436 11,800 -2,160 Descending Oakland Center
01:52PM 36.4089 -121.4683 277° West 350 403 9,800 -1,860 Descending Oakland Center
01:53PM 36.4211 -121.5708 278° West 317 365 8,000 -1,320 Descending Oakland Center
01:54PM 36.4283 -121.6661 275° West 289 333 7,100 -540 Descending Oakland Center
01:55PM 36.4561 -121.7703 288° West 272 313 6,900 -660 Descending Oakland Center
01:57PM 36.4850 -121.8478 295° West 270 311 5,800 -960 Descending Oakland Center
01:58PM 36.5119 -121.9311 292° West 264 304 5,000 -540 Descending Oakland Center
01:59PM 36.5383 -122.0028 295° West 242 278 4,800 -540 Descending Oakland Center
02:00PM 36.5642 -122.0703 295° West 226 260 4,000 -840 Descending Oakland Center
02:01PM 36.6200 -122.0983 338° Northwest 203 234 3,200 -840 Descending Oakland Center
02:02PM 36.6500 -122.0500 52° Northeast 181 208 2,400 -480 Descending Northern Cal TRACON
02:03PM 36.6333 -121.9833 107° East 176 203 2,300 -480 Descending Northern Cal TRACON
02:04PM 36.6147 -121.9344 115° Southeast 180 207 1,500 -600 Descending Oakland Center
02:05PM 36.5947 -121.8750 113° Southeast 175 201 1,000 -540 Descending Oakland Center
02:06PM 36.5836 -121.8378 110° East 170 196 500 -540 Descending Oakland Center